sensor_id;sensor_type;location;lat;lon;timestamp;P1;durP1;ratioP1;P2;durP2;ratioP2
920;SDS011;447;51.332;6.778;2023-07-16T00:00:50;3.23;;;2.93;;
920;SDS011;447;51.332;6.778;2023-07-16T00:03:17;3.17;;;2.87;;
920;SDS011;447;51.332;6.778;2023-07-16T00:05:43;6.10;;;3.10;;
920;SDS011;447;51.332;6.778;2023-07-16T00:08:11;5.00;;;2.70;;
920;SDS011;447;51.332;6.778;2023-07-16T00:10:37;5.60;;;2.60;;
920;SDS011;447;51.332;6.778;2023-07-16T00:13:06;3.13;;;2.60;;
920;SDS011;447;51.332;6.778;2023-07-16T00:15:31;2.70;;;2.40;;
920;SDS011;447;51.332;6.778;2023-07-16T00:18:02;3.40;;;2.80;;
920;SDS011;447;51.332;6.778;2023-07-16T00:20:28;4.73;;;2.60;;
920;SDS011;447;51.332;6.778;2023-07-16T00:22:58;3.73;;;2.27;;
920;SDS011;447;51.332;6.778;2023-07-16T00:25:24;4.90;;;3.07;;
920;SDS011;447;51.332;6.778;2023-07-16T00:27:53;4.83;;;2.90;;
920;SDS011;447;51.332;6.778;2023-07-16T00:30:19;3.67;;;2.50;;
920;SDS011;447;51.332;6.778;2023-07-16T00:32:47;2.80;;;2.60;;
920;SDS011;447;51.332;6.778;2023-07-16T00:35:13;3.60;;;2.90;;
920;SDS011;447;51.332;6.778;2023-07-16T00:37:39;4.40;;;3.00;;
920;SDS011;447;51.332;6.778;2023-07-16T00:40:07;3.93;;;2.70;;
920;SDS011;447;51.332;6.778;2023-07-16T00:42:34;3.43;;;3.13;;
920;SDS011;447;51.332;6.778;2023-07-16T00:45:00;5.80;;;3.00;;
920;SDS011;447;51.332;6.778;2023-07-16T00:47:25;3.63;;;2.70;;
920;SDS011;447;51.332;6.778;2023-07-16T00:49:51;3.93;;;3.10;;
920;SDS011;447;51.332;6.778;2023-07-16T00:52:19;4.20;;;2.90;;
920;SDS011;447;51.332;6.778;2023-07-16T00:54:48;5.93;;;2.77;;
920;SDS011;447;51.332;6.778;2023-07-16T00:57:15;4.90;;;2.90;;
920;SDS011;447;51.332;6.778;2023-07-16T00:59:41;3.97;;;2.40;;
920;SDS011;447;51.332;6.778;2023-07-16T01:02:08;4.50;;;2.83;;
920;SDS011;447;51.332;6.778;2023-07-16T01:04:34;3.63;;;2.70;;
920;SDS011;447;51.332;6.778;2023-07-16T01:07:01;3.97;;;2.60;;
920;SDS011;447;51.332;6.778;2023-07-16T01:09:31;3.83;;;2.53;;
920;SDS011;447;51.332;6.778;2023-07-16T01:11:59;4.20;;;2.87;;
920;SDS011;447;51.332;6.778;2023-07-16T01:14:26;6.60;;;3.20;;
920;SDS011;447;51.332;6.778;2023-07-16T01:16:54;5.47;;;2.80;;
920;SDS011;447;51.332;6.778;2023-07-16T01:19:24;4.83;;;2.50;;
920;SDS011;447;51.332;6.778;2023-07-16T01:22:03;4.27;;;2.70;;
920;SDS011;447;51.332;6.778;2023-07-16T01:25:00;5.83;;;3.13;;
920;SDS011;447;51.332;6.778;2023-07-16T01:30:03;6.07;;;3.30;;
920;SDS011;447;51.332;6.778;2023-07-16T01:32:30;4.73;;;3.20;;
920;SDS011;447;51.332;6.778;2023-07-16T01:35:00;3.03;;;2.73;;
920;SDS011;447;51.332;6.778;2023-07-16T01:37:28;7.77;;;3.03;;
920;SDS011;447;51.332;6.778;2023-07-16T01:39:54;3.93;;;2.97;;
920;SDS011;447;51.332;6.778;2023-07-16T01:42:20;4.67;;;3.40;;
920;SDS011;447;51.332;6.778;2023-07-16T01:44:46;4.90;;;3.00;;
920;SDS011;447;51.332;6.778;2023-07-16T01:47:15;4.53;;;3.60;;
920;SDS011;447;51.332;6.778;2023-07-16T01:49:55;5.53;;;3.50;;
920;SDS011;447;51.332;6.778;2023-07-16T01:52:21;3.83;;;3.53;;
920;SDS011;447;51.332;6.778;2023-07-16T01:54:48;8.63;;;4.43;;
920;SDS011;447;51.332;6.778;2023-07-16T01:57:14;4.43;;;3.67;;
920;SDS011;447;51.332;6.778;2023-07-16T01:59:39;3.80;;;3.50;;
920;SDS011;447;51.332;6.778;2023-07-16T02:02:05;4.67;;;3.50;;
920;SDS011;447;51.332;6.778;2023-07-16T02:04:32;7.03;;;3.97;;
920;SDS011;447;51.332;6.778;2023-07-16T02:06:58;5.50;;;3.37;;
920;SDS011;447;51.332;6.778;2023-07-16T02:09:24;5.17;;;3.73;;
920;SDS011;447;51.332;6.778;2023-07-16T02:11:50;3.80;;;3.50;;
920;SDS011;447;51.332;6.778;2023-07-16T02:14:17;4.20;;;3.80;;
920;SDS011;447;51.332;6.778;2023-07-16T02:16:43;3.80;;;3.37;;
920;SDS011;447;51.332;6.778;2023-07-16T02:19:10;4.90;;;3.40;;
920;SDS011;447;51.332;6.778;2023-07-16T02:21:36;7.10;;;3.53;;
920;SDS011;447;51.332;6.778;2023-07-16T02:24:02;3.30;;;3.10;;
920;SDS011;447;51.332;6.778;2023-07-16T02:26:28;5.90;;;3.83;;
920;SDS011;447;51.332;6.778;2023-07-16T02:28:54;8.60;;;3.20;;
920;SDS011;447;51.332;6.778;2023-07-16T02:31:21;4.07;;;3.00;;
920;SDS011;447;51.332;6.778;2023-07-16T02:33:47;3.17;;;2.90;;
920;SDS011;447;51.332;6.778;2023-07-16T02:36:12;3.80;;;2.93;;
920;SDS011;447;51.332;6.778;2023-07-16T02:38:38;3.70;;;3.17;;
920;SDS011;447;51.332;6.778;2023-07-16T02:41:04;5.30;;;3.07;;
920;SDS011;447;51.332;6.778;2023-07-16T02:47:06;6.07;;;3.20;;
920;SDS011;447;51.332;6.778;2023-07-16T02:49:32;8.70;;;2.77;;
920;SDS011;447;51.332;6.778;2023-07-16T02:51:57;4.60;;;3.00;;
920;SDS011;447;51.332;6.778;2023-07-16T02:54:26;7.20;;;2.70;;
920;SDS011;447;51.332;6.778;2023-07-16T02:56:52;2.83;;;2.60;;
920;SDS011;447;51.332;6.778;2023-07-16T02:59:20;4.37;;;2.93;;
920;SDS011;447;51.332;6.778;2023-07-16T03:01:46;6.23;;;3.00;;
920;SDS011;447;51.332;6.778;2023-07-16T03:04:15;3.67;;;2.70;;
920;SDS011;447;51.332;6.778;2023-07-16T03:06:48;8.73;;;3.30;;
920;SDS011;447;51.332;6.778;2023-07-16T03:09:14;3.00;;;2.70;;
920;SDS011;447;51.332;6.778;2023-07-16T03:11:45;6.17;;;3.20;;
920;SDS011;447;51.332;6.778;2023-07-16T03:14:13;5.13;;;2.80;;
920;SDS011;447;51.332;6.778;2023-07-16T03:16:40;4.50;;;3.07;;
920;SDS011;447;51.332;6.778;2023-07-16T03:19:09;6.80;;;2.70;;
920;SDS011;447;51.332;6.778;2023-07-16T03:21:35;3.03;;;2.53;;
920;SDS011;447;51.332;6.778;2023-07-16T03:24:00;9.40;;;3.20;;
920;SDS011;447;51.332;6.778;2023-07-16T03:26:26;5.97;;;3.10;;
920;SDS011;447;51.332;6.778;2023-07-16T03:28:52;4.23;;;2.80;;
920;SDS011;447;51.332;6.778;2023-07-16T03:31:18;4.60;;;2.83;;
920;SDS011;447;51.332;6.778;2023-07-16T03:33:46;7.53;;;3.33;;
920;SDS011;447;51.332;6.778;2023-07-16T03:36:12;4.90;;;3.23;;
920;SDS011;447;51.332;6.778;2023-07-16T03:38:38;6.40;;;3.00;;
920;SDS011;447;51.332;6.778;2023-07-16T03:41:04;4.07;;;3.17;;
920;SDS011;447;51.332;6.778;2023-07-16T03:43:31;6.23;;;3.27;;
920;SDS011;447;51.332;6.778;2023-07-16T03:46:07;4.17;;;3.00;;
920;SDS011;447;51.332;6.778;2023-07-16T03:48:34;3.83;;;2.90;;
920;SDS011;447;51.332;6.778;2023-07-16T03:51:01;6.50;;;3.43;;
920;SDS011;447;51.332;6.778;2023-07-16T03:53:27;6.20;;;3.37;;
920;SDS011;447;51.332;6.778;2023-07-16T03:55:53;5.40;;;3.60;;
920;SDS011;447;51.332;6.778;2023-07-16T03:58:19;7.77;;;3.20;;
920;SDS011;447;51.332;6.778;2023-07-16T04:00:45;4.07;;;2.70;;
920;SDS011;447;51.332;6.778;2023-07-16T04:03:11;3.47;;;3.17;;
920;SDS011;447;51.332;6.778;2023-07-16T04:05:38;4.40;;;3.30;;
920;SDS011;447;51.332;6.778;2023-07-16T04:08:05;3.70;;;3.10;;
920;SDS011;447;51.332;6.778;2023-07-16T04:10:31;5.27;;;3.60;;
920;SDS011;447;51.332;6.778;2023-07-16T04:12:57;6.47;;;3.03;;
920;SDS011;447;51.332;6.778;2023-07-16T04:15:23;5.80;;;3.20;;
920;SDS011;447;51.332;6.778;2023-07-16T04:17:48;7.07;;;3.27;;
920;SDS011;447;51.332;6.778;2023-07-16T04:20:14;11.37;;;4.70;;
920;SDS011;447;51.332;6.778;2023-07-16T04:22:40;4.67;;;3.40;;
920;SDS011;447;51.332;6.778;2023-07-16T04:25:06;9.00;;;3.33;;
920;SDS011;447;51.332;6.778;2023-07-16T04:27:33;6.50;;;3.33;;
920;SDS011;447;51.332;6.778;2023-07-16T04:29:59;6.10;;;3.20;;
920;SDS011;447;51.332;6.778;2023-07-16T04:32:25;5.60;;;3.10;;
920;SDS011;447;51.332;6.778;2023-07-16T04:34:51;7.30;;;3.20;;
920;SDS011;447;51.332;6.778;2023-07-16T04:37:16;7.03;;;3.10;;
920;SDS011;447;51.332;6.778;2023-07-16T04:39:42;4.30;;;3.00;;
920;SDS011;447;51.332;6.778;2023-07-16T04:42:08;5.57;;;3.23;;
920;SDS011;447;51.332;6.778;2023-07-16T04:44:34;3.63;;;2.90;;
920;SDS011;447;51.332;6.778;2023-07-16T04:47:06;7.80;;;3.40;;
920;SDS011;447;51.332;6.778;2023-07-16T04:49:34;3.23;;;2.93;;
920;SDS011;447;51.332;6.778;2023-07-16T04:52:01;4.53;;;2.90;;
920;SDS011;447;51.332;6.778;2023-07-16T04:54:27;5.37;;;3.40;;
920;SDS011;447;51.332;6.778;2023-07-16T04:56:53;5.20;;;3.10;;
920;SDS011;447;51.332;6.778;2023-07-16T04:59:19;7.40;;;3.77;;
920;SDS011;447;51.332;6.778;2023-07-16T05:01:45;6.27;;;3.90;;
920;SDS011;447;51.332;6.778;2023-07-16T05:04:11;6.37;;;3.23;;
920;SDS011;447;51.332;6.778;2023-07-16T05:06:37;4.20;;;3.23;;
920;SDS011;447;51.332;6.778;2023-07-16T05:09:03;5.47;;;3.20;;
920;SDS011;447;51.332;6.778;2023-07-16T05:11:29;6.47;;;3.43;;
920;SDS011;447;51.332;6.778;2023-07-16T05:13:55;8.47;;;3.40;;
920;SDS011;447;51.332;6.778;2023-07-16T05:16:21;3.50;;;2.97;;
920;SDS011;447;51.332;6.778;2023-07-16T05:18:47;6.00;;;3.80;;
920;SDS011;447;51.332;6.778;2023-07-16T05:21:13;5.57;;;3.23;;
920;SDS011;447;51.332;6.778;2023-07-16T05:23:39;8.73;;;4.33;;
920;SDS011;447;51.332;6.778;2023-07-16T05:26:08;4.70;;;3.80;;
920;SDS011;447;51.332;6.778;2023-07-16T05:28:33;5.57;;;3.93;;
920;SDS011;447;51.332;6.778;2023-07-16T05:31:04;7.00;;;3.40;;
920;SDS011;447;51.332;6.778;2023-07-16T05:33:32;5.73;;;3.30;;
920;SDS011;447;51.332;6.778;2023-07-16T05:35:59;5.97;;;4.50;;
920;SDS011;447;51.332;6.778;2023-07-16T05:38:25;5.50;;;3.80;;
920;SDS011;447;51.332;6.778;2023-07-16T05:40:53;8.40;;;4.50;;
920;SDS011;447;51.332;6.778;2023-07-16T05:43:25;5.03;;;3.83;;
920;SDS011;447;51.332;6.778;2023-07-16T05:45:51;7.50;;;4.00;;
920;SDS011;447;51.332;6.778;2023-07-16T05:48:19;6.13;;;3.63;;
920;SDS011;447;51.332;6.778;2023-07-16T05:50:45;6.20;;;4.60;;
920;SDS011;447;51.332;6.778;2023-07-16T05:53:11;7.60;;;3.97;;
920;SDS011;447;51.332;6.778;2023-07-16T05:55:39;5.30;;;3.87;;
920;SDS011;447;51.332;6.778;2023-07-16T05:58:05;6.30;;;4.27;;
920;SDS011;447;51.332;6.778;2023-07-16T06:00:34;6.83;;;4.70;;
920;SDS011;447;51.332;6.778;2023-07-16T06:03:03;7.93;;;4.50;;
920;SDS011;447;51.332;6.778;2023-07-16T06:05:31;7.70;;;4.10;;
920;SDS011;447;51.332;6.778;2023-07-16T06:07:58;6.23;;;3.80;;
920;SDS011;447;51.332;6.778;2023-07-16T06:10:24;4.33;;;3.83;;
920;SDS011;447;51.332;6.778;2023-07-16T06:12:54;6.30;;;4.13;;
920;SDS011;447;51.332;6.778;2023-07-16T06:15:25;5.57;;;4.20;;
920;SDS011;447;51.332;6.778;2023-07-16T06:17:51;5.07;;;4.10;;
920;SDS011;447;51.332;6.778;2023-07-16T06:20:20;6.83;;;4.20;;
920;SDS011;447;51.332;6.778;2023-07-16T06:22:46;6.53;;;4.17;;
920;SDS011;447;51.332;6.778;2023-07-16T06:25:15;6.10;;;4.30;;
920;SDS011;447;51.332;6.778;2023-07-16T06:27:41;4.53;;;4.10;;
920;SDS011;447;51.332;6.778;2023-07-16T06:30:07;6.80;;;4.13;;
920;SDS011;447;51.332;6.778;2023-07-16T06:32:33;7.03;;;4.73;;
920;SDS011;447;51.332;6.778;2023-07-16T06:35:02;6.50;;;4.23;;
920;SDS011;447;51.332;6.778;2023-07-16T06:37:28;6.67;;;4.77;;
920;SDS011;447;51.332;6.778;2023-07-16T06:39:57;7.70;;;5.27;;
920;SDS011;447;51.332;6.778;2023-07-16T06:42:25;6.97;;;4.27;;
920;SDS011;447;51.332;6.778;2023-07-16T06:44:54;5.10;;;4.60;;
920;SDS011;447;51.332;6.778;2023-07-16T06:47:22;5.63;;;4.77;;
920;SDS011;447;51.332;6.778;2023-07-16T06:49:50;7.80;;;4.70;;
920;SDS011;447;51.332;6.778;2023-07-16T06:52:22;6.07;;;5.10;;
920;SDS011;447;51.332;6.778;2023-07-16T06:54:53;6.63;;;5.43;;
920;SDS011;447;51.332;6.778;2023-07-16T06:57:20;5.60;;;4.80;;
920;SDS011;447;51.332;6.778;2023-07-16T06:59:49;8.73;;;4.80;;
920;SDS011;447;51.332;6.778;2023-07-16T07:02:18;5.97;;;4.53;;
920;SDS011;447;51.332;6.778;2023-07-16T07:04:44;11.93;;;5.13;;
920;SDS011;447;51.332;6.778;2023-07-16T07:07:11;5.57;;;4.70;;
920;SDS011;447;51.332;6.778;2023-07-16T07:09:37;5.90;;;5.30;;
920;SDS011;447;51.332;6.778;2023-07-16T07:12:04;6.70;;;5.33;;
920;SDS011;447;51.332;6.778;2023-07-16T07:14:32;7.20;;;4.63;;
920;SDS011;447;51.332;6.778;2023-07-16T07:16:58;7.07;;;5.27;;
920;SDS011;447;51.332;6.778;2023-07-16T07:19:27;7.13;;;5.47;;
920;SDS011;447;51.332;6.778;2023-07-16T07:21:57;5.87;;;5.30;;
920;SDS011;447;51.332;6.778;2023-07-16T07:24:26;7.40;;;5.33;;
920;SDS011;447;51.332;6.778;2023-07-16T07:26:52;6.00;;;4.97;;
920;SDS011;447;51.332;6.778;2023-07-16T07:29:20;7.53;;;5.67;;
920;SDS011;447;51.332;6.778;2023-07-16T07:31:46;7.17;;;5.27;;
920;SDS011;447;51.332;6.778;2023-07-16T07:34:14;5.70;;;5.10;;
920;SDS011;447;51.332;6.778;2023-07-16T07:36:41;6.93;;;5.90;;
920;SDS011;447;51.332;6.778;2023-07-16T07:39:09;8.07;;;6.00;;
920;SDS011;447;51.332;6.778;2023-07-16T07:41:35;6.63;;;5.13;;
920;SDS011;447;51.332;6.778;2023-07-16T07:44:01;6.53;;;5.57;;
920;SDS011;447;51.332;6.778;2023-07-16T07:46:27;7.97;;;5.57;;
920;SDS011;447;51.332;6.778;2023-07-16T07:48:53;7.00;;;6.07;;
920;SDS011;447;51.332;6.778;2023-07-16T07:51:20;9.03;;;5.70;;
920;SDS011;447;51.332;6.778;2023-07-16T07:53:48;9.40;;;6.07;;
920;SDS011;447;51.332;6.778;2023-07-16T07:56:16;6.90;;;6.10;;
920;SDS011;447;51.332;6.778;2023-07-16T07:58:42;8.07;;;5.27;;
920;SDS011;447;51.332;6.778;2023-07-16T08:01:08;8.27;;;5.20;;
920;SDS011;447;51.332;6.778;2023-07-16T08:03:37;8.00;;;5.17;;
920;SDS011;447;51.332;6.778;2023-07-16T08:06:05;8.10;;;4.70;;
920;SDS011;447;51.332;6.778;2023-07-16T08:08:36;6.70;;;5.80;;
920;SDS011;447;51.332;6.778;2023-07-16T08:11:02;6.83;;;5.10;;
920;SDS011;447;51.332;6.778;2023-07-16T08:13:30;8.07;;;5.03;;
920;SDS011;447;51.332;6.778;2023-07-16T08:16:03;6.00;;;5.20;;
920;SDS011;447;51.332;6.778;2023-07-16T08:18:30;10.83;;;5.63;;
920;SDS011;447;51.332;6.778;2023-07-16T08:20:58;7.20;;;5.20;;
920;SDS011;447;51.332;6.778;2023-07-16T08:23:27;6.90;;;6.10;;
920;SDS011;447;51.332;6.778;2023-07-16T08:25:53;7.20;;;5.40;;
920;SDS011;447;51.332;6.778;2023-07-16T08:28:19;6.90;;;5.20;;
920;SDS011;447;51.332;6.778;2023-07-16T08:30:47;6.70;;;5.27;;
920;SDS011;447;51.332;6.778;2023-07-16T08:33:18;6.97;;;6.20;;
920;SDS011;447;51.332;6.778;2023-07-16T08:35:44;10.80;;;5.30;;
920;SDS011;447;51.332;6.778;2023-07-16T08:38:15;6.20;;;5.60;;
920;SDS011;447;51.332;6.778;2023-07-16T08:40:41;6.57;;;5.37;;
920;SDS011;447;51.332;6.778;2023-07-16T08:43:08;8.20;;;5.27;;
920;SDS011;447;51.332;6.778;2023-07-16T08:45:38;7.80;;;5.43;;
920;SDS011;447;51.332;6.778;2023-07-16T08:48:12;8.80;;;5.47;;
920;SDS011;447;51.332;6.778;2023-07-16T08:50:41;6.50;;;4.87;;
920;SDS011;447;51.332;6.778;2023-07-16T08:53:12;6.30;;;5.70;;
920;SDS011;447;51.332;6.778;2023-07-16T08:55:39;7.13;;;5.77;;
920;SDS011;447;51.332;6.778;2023-07-16T08:58:05;6.70;;;5.50;;
920;SDS011;447;51.332;6.778;2023-07-16T09:00:32;5.60;;;5.10;;
920;SDS011;447;51.332;6.778;2023-07-16T09:02:59;6.83;;;5.20;;
920;SDS011;447;51.332;6.778;2023-07-16T09:05:30;7.73;;;5.70;;
920;SDS011;447;51.332;6.778;2023-07-16T09:08:00;7.90;;;5.20;;
920;SDS011;447;51.332;6.778;2023-07-16T09:10:25;7.57;;;5.50;;
920;SDS011;447;51.332;6.778;2023-07-16T09:12:52;6.80;;;5.67;;
920;SDS011;447;51.332;6.778;2023-07-16T09:15:18;6.53;;;4.80;;
920;SDS011;447;51.332;6.778;2023-07-16T09:17:48;9.83;;;5.23;;
920;SDS011;447;51.332;6.778;2023-07-16T09:20:16;6.47;;;5.60;;
920;SDS011;447;51.332;6.778;2023-07-16T09:22:43;6.80;;;5.00;;
920;SDS011;447;51.332;6.778;2023-07-16T09:25:13;6.40;;;5.07;;
920;SDS011;447;51.332;6.778;2023-07-16T09:27:42;6.70;;;4.90;;
920;SDS011;447;51.332;6.778;2023-07-16T09:30:14;6.33;;;5.50;;
920;SDS011;447;51.332;6.778;2023-07-16T09:32:41;6.97;;;5.03;;
920;SDS011;447;51.332;6.778;2023-07-16T09:35:16;7.23;;;5.17;;
920;SDS011;447;51.332;6.778;2023-07-16T09:37:43;6.50;;;5.90;;
920;SDS011;447;51.332;6.778;2023-07-16T09:40:12;7.70;;;5.27;;
920;SDS011;447;51.332;6.778;2023-07-16T09:42:39;5.10;;;4.60;;
920;SDS011;447;51.332;6.778;2023-07-16T09:45:06;5.57;;;5.07;;
920;SDS011;447;51.332;6.778;2023-07-16T09:47:43;6.03;;;5.10;;
920;SDS011;447;51.332;6.778;2023-07-16T09:50:13;5.33;;;4.30;;
920;SDS011;447;51.332;6.778;2023-07-16T09:52:41;6.73;;;5.37;;
920;SDS011;447;51.332;6.778;2023-07-16T09:55:08;5.97;;;5.43;;
920;SDS011;447;51.332;6.778;2023-07-16T09:57:39;7.13;;;5.00;;
920;SDS011;447;51.332;6.778;2023-07-16T10:00:10;8.20;;;5.07;;
920;SDS011;447;51.332;6.778;2023-07-16T10:02:39;6.80;;;4.80;;
920;SDS011;447;51.332;6.778;2023-07-16T10:05:14;6.47;;;4.87;;
920;SDS011;447;51.332;6.778;2023-07-16T10:08:05;5.57;;;5.07;;
920;SDS011;447;51.332;6.778;2023-07-16T10:10:48;4.93;;;4.53;;
920;SDS011;447;51.332;6.778;2023-07-16T10:13:21;6.23;;;4.30;;
920;SDS011;447;51.332;6.778;2023-07-16T10:15:55;5.97;;;5.10;;
920;SDS011;447;51.332;6.778;2023-07-16T10:18:29;5.30;;;4.80;;
920;SDS011;447;51.332;6.778;2023-07-16T10:21:08;5.80;;;5.00;;
920;SDS011;447;51.332;6.778;2023-07-16T10:23:37;5.57;;;4.97;;
920;SDS011;447;51.332;6.778;2023-07-16T10:26:05;7.00;;;4.73;;
920;SDS011;447;51.332;6.778;2023-07-16T10:28:35;6.03;;;4.10;;
920;SDS011;447;51.332;6.778;2023-07-16T10:31:02;5.97;;;5.00;;
920;SDS011;447;51.332;6.778;2023-07-16T10:33:29;7.33;;;5.17;;
920;SDS011;447;51.332;6.778;2023-07-16T10:35:56;7.10;;;5.30;;
920;SDS011;447;51.332;6.778;2023-07-16T10:38:26;6.23;;;5.50;;
920;SDS011;447;51.332;6.778;2023-07-16T10:40:52;6.00;;;4.90;;
920;SDS011;447;51.332;6.778;2023-07-16T10:43:21;7.07;;;4.80;;
920;SDS011;447;51.332;6.778;2023-07-16T10:45:50;5.27;;;4.70;;
920;SDS011;447;51.332;6.778;2023-07-16T10:48:16;5.57;;;4.90;;
920;SDS011;447;51.332;6.778;2023-07-16T10:50:42;5.97;;;5.30;;
920;SDS011;447;51.332;6.778;2023-07-16T10:53:10;6.40;;;4.60;;
920;SDS011;447;51.332;6.778;2023-07-16T10:55:40;7.90;;;5.17;;
920;SDS011;447;51.332;6.778;2023-07-16T10:58:11;5.33;;;4.83;;
920;SDS011;447;51.332;6.778;2023-07-16T11:00:42;7.87;;;4.67;;
920;SDS011;447;51.332;6.778;2023-07-16T11:03:16;6.40;;;5.80;;
920;SDS011;447;51.332;6.778;2023-07-16T11:05:47;6.47;;;4.60;;
920;SDS011;447;51.332;6.778;2023-07-16T11:08:23;7.00;;;4.70;;
920;SDS011;447;51.332;6.778;2023-07-16T11:10:56;6.83;;;5.10;;
920;SDS011;447;51.332;6.778;2023-07-16T11:13:34;7.43;;;4.93;;
920;SDS011;447;51.332;6.778;2023-07-16T11:16:09;6.00;;;5.40;;
920;SDS011;447;51.332;6.778;2023-07-16T11:18:35;5.40;;;4.90;;
920;SDS011;447;51.332;6.778;2023-07-16T11:21:06;6.97;;;4.97;;
920;SDS011;447;51.332;6.778;2023-07-16T11:23:35;7.27;;;4.90;;
920;SDS011;447;51.332;6.778;2023-07-16T11:26:02;7.33;;;4.57;;
920;SDS011;447;51.332;6.778;2023-07-16T11:28:38;4.87;;;4.40;;
920;SDS011;447;51.332;6.778;2023-07-16T11:31:15;6.87;;;4.37;;
920;SDS011;447;51.332;6.778;2023-07-16T11:33:44;4.97;;;4.57;;
920;SDS011;447;51.332;6.778;2023-07-16T11:36:11;6.23;;;3.97;;
920;SDS011;447;51.332;6.778;2023-07-16T11:38:40;5.23;;;4.70;;
920;SDS011;447;51.332;6.778;2023-07-16T11:41:09;5.23;;;4.83;;
920;SDS011;447;51.332;6.778;2023-07-16T11:43:37;5.73;;;5.07;;
920;SDS011;447;51.332;6.778;2023-07-16T11:46:14;6.10;;;4.20;;
920;SDS011;447;51.332;6.778;2023-07-16T11:48:43;6.57;;;4.53;;
920;SDS011;447;51.332;6.778;2023-07-16T11:51:09;5.20;;;4.30;;
920;SDS011;447;51.332;6.778;2023-07-16T11:53:35;7.10;;;4.53;;
920;SDS011;447;51.332;6.778;2023-07-16T11:56:02;5.27;;;4.80;;
920;SDS011;447;51.332;6.778;2023-07-16T11:58:31;5.73;;;4.60;;
920;SDS011;447;51.332;6.778;2023-07-16T12:00:57;5.50;;;4.40;;
920;SDS011;447;51.332;6.778;2023-07-16T12:03:25;4.83;;;4.23;;
920;SDS011;447;51.332;6.778;2023-07-16T12:05:51;6.50;;;4.33;;
920;SDS011;447;51.332;6.778;2023-07-16T12:08:17;6.20;;;4.47;;
920;SDS011;447;51.332;6.778;2023-07-16T12:10:46;5.23;;;4.20;;
920;SDS011;447;51.332;6.778;2023-07-16T12:13:14;5.20;;;4.70;;
920;SDS011;447;51.332;6.778;2023-07-16T12:15:40;5.00;;;4.00;;
920;SDS011;447;51.332;6.778;2023-07-16T12:18:08;4.40;;;4.00;;
920;SDS011;447;51.332;6.778;2023-07-16T12:20:34;5.50;;;4.20;;
920;SDS011;447;51.332;6.778;2023-07-16T12:23:04;7.23;;;4.27;;
920;SDS011;447;51.332;6.778;2023-07-16T12:25:32;6.33;;;4.20;;
920;SDS011;447;51.332;6.778;2023-07-16T12:27:59;6.60;;;4.80;;
920;SDS011;447;51.332;6.778;2023-07-16T12:30:27;5.90;;;5.10;;
920;SDS011;447;51.332;6.778;2023-07-16T12:32:53;6.37;;;4.63;;
920;SDS011;447;51.332;6.778;2023-07-16T12:35:19;4.83;;;4.40;;
920;SDS011;447;51.332;6.778;2023-07-16T12:37:45;5.00;;;4.50;;
920;SDS011;447;51.332;6.778;2023-07-16T12:40:11;5.07;;;4.47;;
920;SDS011;447;51.332;6.778;2023-07-16T12:42:37;5.47;;;4.67;;
920;SDS011;447;51.332;6.778;2023-07-16T12:45:03;6.73;;;4.33;;
920;SDS011;447;51.332;6.778;2023-07-16T12:47:30;4.93;;;4.53;;
920;SDS011;447;51.332;6.778;2023-07-16T12:49:57;4.63;;;4.20;;
920;SDS011;447;51.332;6.778;2023-07-16T12:52:26;6.00;;;4.50;;
920;SDS011;447;51.332;6.778;2023-07-16T12:54:54;5.63;;;4.20;;
920;SDS011;447;51.332;6.778;2023-07-16T12:57:20;6.77;;;4.80;;
920;SDS011;447;51.332;6.778;2023-07-16T12:59:46;6.63;;;4.30;;
920;SDS011;447;51.332;6.778;2023-07-16T13:02:15;5.40;;;4.87;;
920;SDS011;447;51.332;6.778;2023-07-16T13:04:40;5.63;;;4.37;;
920;SDS011;447;51.332;6.778;2023-07-16T13:07:09;8.80;;;5.03;;
920;SDS011;447;51.332;6.778;2023-07-16T13:09:35;5.13;;;4.73;;
920;SDS011;447;51.332;6.778;2023-07-16T13:12:01;6.77;;;4.70;;
920;SDS011;447;51.332;6.778;2023-07-16T13:14:27;5.80;;;4.87;;
920;SDS011;447;51.332;6.778;2023-07-16T13:16:53;5.43;;;4.90;;
920;SDS011;447;51.332;6.778;2023-07-16T13:19:21;4.57;;;4.17;;
920;SDS011;447;51.332;6.778;2023-07-16T13:21:49;5.37;;;4.60;;
920;SDS011;447;51.332;6.778;2023-07-16T13:24:15;7.03;;;4.37;;
920;SDS011;447;51.332;6.778;2023-07-16T13:26:46;5.60;;;5.10;;
920;SDS011;447;51.332;6.778;2023-07-16T13:29:12;7.33;;;4.37;;
920;SDS011;447;51.332;6.778;2023-07-16T13:31:40;5.70;;;4.70;;
920;SDS011;447;51.332;6.778;2023-07-16T13:34:06;5.20;;;4.50;;
920;SDS011;447;51.332;6.778;2023-07-16T13:36:32;6.10;;;4.33;;
920;SDS011;447;51.332;6.778;2023-07-16T13:38:58;5.33;;;4.67;;
920;SDS011;447;51.332;6.778;2023-07-16T13:41:26;5.20;;;4.70;;
920;SDS011;447;51.332;6.778;2023-07-16T13:43:52;6.83;;;5.00;;
920;SDS011;447;51.332;6.778;2023-07-16T13:46:21;9.23;;;5.30;;
920;SDS011;447;51.332;6.778;2023-07-16T13:48:47;6.13;;;5.10;;
920;SDS011;447;51.332;6.778;2023-07-16T13:51:15;6.47;;;4.97;;
920;SDS011;447;51.332;6.778;2023-07-16T13:53:41;6.40;;;4.43;;
920;SDS011;447;51.332;6.778;2023-07-16T13:56:07;5.57;;;5.07;;
920;SDS011;447;51.332;6.778;2023-07-16T13:58:33;6.63;;;5.20;;
920;SDS011;447;51.332;6.778;2023-07-16T14:01:04;5.97;;;4.50;;
920;SDS011;447;51.332;6.778;2023-07-16T14:03:32;5.30;;;4.20;;
920;SDS011;447;51.332;6.778;2023-07-16T14:05:58;4.70;;;4.30;;
920;SDS011;447;51.332;6.778;2023-07-16T14:08:26;6.70;;;4.67;;
920;SDS011;447;51.332;6.778;2023-07-16T14:10:55;5.53;;;4.00;;
920;SDS011;447;51.332;6.778;2023-07-16T14:13:21;5.27;;;4.70;;
920;SDS011;447;51.332;6.778;2023-07-16T14:15:50;4.63;;;4.00;;
920;SDS011;447;51.332;6.778;2023-07-16T14:18:16;4.50;;;3.87;;
920;SDS011;447;51.332;6.778;2023-07-16T14:20:47;4.63;;;4.23;;
920;SDS011;447;51.332;6.778;2023-07-16T14:23:13;8.60;;;3.97;;
920;SDS011;447;51.332;6.778;2023-07-16T14:25:39;4.30;;;3.90;;
920;SDS011;447;51.332;6.778;2023-07-16T14:28:06;4.60;;;4.20;;
920;SDS011;447;51.332;6.778;2023-07-16T14:30:34;4.67;;;4.17;;
920;SDS011;447;51.332;6.778;2023-07-16T14:33:03;4.67;;;4.17;;
920;SDS011;447;51.332;6.778;2023-07-16T14:35:30;5.90;;;3.80;;
920;SDS011;447;51.332;6.778;2023-07-16T14:38:03;4.83;;;4.30;;
920;SDS011;447;51.332;6.778;2023-07-16T14:40:29;9.30;;;4.40;;
920;SDS011;447;51.332;6.778;2023-07-16T14:42:55;7.77;;;4.50;;
920;SDS011;447;51.332;6.778;2023-07-16T14:45:21;5.13;;;4.17;;
920;SDS011;447;51.332;6.778;2023-07-16T14:47:52;5.00;;;4.50;;
920;SDS011;447;51.332;6.778;2023-07-16T14:50:20;7.90;;;3.70;;
920;SDS011;447;51.332;6.778;2023-07-16T14:52:46;6.10;;;3.83;;
920;SDS011;447;51.332;6.778;2023-07-16T14:55:15;6.23;;;3.97;;
920;SDS011;447;51.332;6.778;2023-07-16T14:57:44;6.30;;;4.20;;
920;SDS011;447;51.332;6.778;2023-07-16T15:00:14;4.97;;;3.73;;
920;SDS011;447;51.332;6.778;2023-07-16T15:02:40;5.50;;;3.77;;
920;SDS011;447;51.332;6.778;2023-07-16T15:05:07;4.33;;;3.93;;
920;SDS011;447;51.332;6.778;2023-07-16T15:07:39;5.60;;;3.90;;
920;SDS011;447;51.332;6.778;2023-07-16T15:10:05;6.17;;;3.83;;
920;SDS011;447;51.332;6.778;2023-07-16T15:12:32;7.30;;;4.50;;
920;SDS011;447;51.332;6.778;2023-07-16T15:14:58;4.70;;;4.30;;
920;SDS011;447;51.332;6.778;2023-07-16T15:17:24;5.60;;;4.67;;
920;SDS011;447;51.332;6.778;2023-07-16T15:19:55;4.80;;;4.33;;
920;SDS011;447;51.332;6.778;2023-07-16T15:22:22;4.80;;;4.30;;
920;SDS011;447;51.332;6.778;2023-07-16T15:24:50;4.10;;;3.67;;
920;SDS011;447;51.332;6.778;2023-07-16T15:27:19;4.97;;;4.53;;
920;SDS011;447;51.332;6.778;2023-07-16T15:29:44;5.60;;;3.97;;
920;SDS011;447;51.332;6.778;2023-07-16T15:32:17;4.57;;;3.80;;
920;SDS011;447;51.332;6.778;2023-07-16T15:34:43;4.93;;;4.47;;
920;SDS011;447;51.332;6.778;2023-07-16T15:37:09;4.67;;;4.27;;
920;SDS011;447;51.332;6.778;2023-07-16T15:39:35;4.40;;;4.00;;
920;SDS011;447;51.332;6.778;2023-07-16T15:42:01;7.40;;;4.50;;
920;SDS011;447;51.332;6.778;2023-07-16T15:44:28;5.50;;;4.43;;
920;SDS011;447;51.332;6.778;2023-07-16T15:46:56;5.00;;;4.20;;
920;SDS011;447;51.332;6.778;2023-07-16T15:49:25;7.13;;;4.60;;
920;SDS011;447;51.332;6.778;2023-07-16T15:51:51;6.70;;;4.27;;
920;SDS011;447;51.332;6.778;2023-07-16T15:54:22;6.03;;;4.60;;